Alpine, Arkansas
Current Conditions -  °F | °C
As of 5:11 AM on Friday 24 Oct 2014 (Local Time) from KADF Reporting Station
Haze Haze  
Wind Chill:   Ceiling: Unl
Heat Index:   Visibility: 1.2mi
Dew Point:   Wind: 0mph
Humidity: 100%   Direction: NA
Pressure: 30.16"   Gusts: NA
Location:  34.23°N, 93.38°W
Report Text: KADF 241011Z AUTO 00000KT 1 1/4SM BR CLR 09/09 A3016 RMK AO2
Loading
Personal Weather Stations






























Interactive Weather Map
Tropical Storm Tracking
New forecast layout! Learn more

10-Day Weather Forecast

Advertisements
Track Severe Weather on mobile